CDT,Max TemperatureF,Mean TemperatureF,Min TemperatureF,Max Dew PointF,MeanDew PointF,Min DewpointF,Max Humidity, Mean Humidity, Min Humidity, Max Sea Level PressureIn, Mean Sea Level PressureIn, Min Sea Level PressureIn, Max VisibilityMiles, Mean VisibilityMiles, Min VisibilityMiles, Max Wind SpeedMPH, Mean Wind SpeedMPH, Max Gust SpeedMPH,PrecipitationIn, CloudCover, Events, WindDirDegrees
2013-8-1,81,68,55,59,52,46,89,60,30,30.04,29.97,29.87,10,10,10,15,6,22,0.00,1,,262
2013-8-2,77,66,56,58,52,44,93,61,31,30.04,29.92,29.84,10,10,10,14,5,20,0.00,1,,293
2013-8-3,77,64,52,54,48,39,93,57,25,30.19,30.12,30.04,10,10,10,14,5,20,0.00,1,,302
2013-8-4,76,63,50,54,50,44,94,65,33,30.26,30.18,30.07,10,10,10,10,3,,0.00,1,,157
2013-8-5,72,64,55,67,60,52,96,86,71,30.06,29.91,29.83,10,9,4,12,4,,0.12,5,Rain-Thunderstorm,159
2013-8-6,84,72,59,66,60,55,97,74,45,29.86,29.80,29.69,10,8,1,16,5,28,0.04,3,Rain-Thunderstorm,227
2013-8-7,76,67,58,62,55,46,97,69,36,30.04,29.91,29.77,10,10,7,13,6,18,0.00,4,,316
2013-8-8,78,64,49,57,52,45,96,66,32,30.07,30.03,29.99,10,10,10,10,3,,0.00,2,,231
2013-8-9,78,68,57,59,52,44,95,62,31,30.12,30.04,30.00,10,10,5,15,4,22,0.00,4,,304
2013-8-10,75,66,58,56,52,47,87,60,39,30.19,30.15,30.11,10,10,10,9,3,,0.00,6,,270
2013-8-11,79,67,55,61,57,53,91,73,45,30.12,30.07,30.01,10,10,10,6,1,,0.00,5,,118
2013-8-12,80,68,56,66,55,47,99,69,31,30.08,30.02,29.98,10,7,0,20,5,36,0.00,4,Fog-Rain,328
2013-8-13,75,62,49,52,46,38,96,60,28,30.20,30.16,30.09,10,10,10,15,3,22,0.00,3,,349
2013-8-14,77,62,48,54,47,41,93,61,27,30.22,30.17,30.11,10,10,10,13,2,17,0.00,4,,6
2013-8-15,80,66,53,54,49,40,89,58,25,30.16,30.12,30.09,10,10,10,13,2,18,0.00,3,,240
2013-8-16,82,67,52,56,52,46,94,60,28,30.20,30.17,30.14,10,10,10,10,2,,0.00,2,,231
2013-8-17,83,67,51,58,52,46,99,63,29,30.24,30.19,30.13,10,9,0,16,3,20,0.00,1,Fog,186
2013-8-18,84,68,52,58,53,50,95,62,31,30.19,30.12,30.05,10,10,7,15,4,22,0.00,0,,172
2013-8-19,86,72,59,65,60,56,90,66,43,30.06,30.00,29.94,10,10,10,14,6,22,0.00,2,,173
2013-8-20,91,76,63,68,65,61,91,67,43,29.98,29.94,29.89,10,10,7,16,7,22,0.00,2,,145
2013-8-21,87,78,68,72,67,66,96,74,53,30.02,29.93,29.89,10,9,0,21,7,29,0.64,2,Fog-Rain-Thunderstorm,176
2013-8-22,84,73,62,67,57,47,99,64,28,30.14,30.09,30.01,10,8,0,8,2,,0.00,2,Fog-Thunderstorm,11
2013-8-23,86,70,54,64,57,50,91,65,33,30.19,30.13,30.08,10,10,10,12,3,,0.00,0,,134
2013-8-24,86,75,64,71,65,59,94,74,54,30.17,30.09,30.01,10,10,5,17,8,24,0.12,2,Rain-Thunderstorm,131
2013-8-25,94,85,76,72,70,68,78,63,43,30.06,30.02,29.98,10,10,10,20,12,25,0.00,0,,189
2013-8-26,96,86,76,74,71,69,84,63,41,30.03,29.96,29.87,10,10,10,17,7,21,0.00,1,Thunderstorm,183
2013-8-27,95,84,74,75,72,69,87,69,47,29.92,29.85,29.80,10,10,10,12,4,16,0.00,1,,229
2013-8-28,87,78,68,71,69,65,96,78,48,30.04,30.00,29.92,10,9,0,7,2,,0.00,2,Fog-Rain,82
2013-8-29,93,80,68,72,69,64,96,72,44,30.04,29.98,29.88,10,8,4,14,5,18,0.03,3,,141
2013-8-30,84,76,67,72,65,58,92,65,41,29.91,29.88,29.82,10,10,10,15,7,26,0.04,2,Rain-Thunderstorm,1
2013-8-31,86,72,59,67,62,58,96,72,44,29.91,29.86,29.74,10,10,10,10,3,,0.00,0,,147